Time;durP1;ratioP1;P1;durP2;ratioP2;P2;SDS_P1;SDS_P2;PMS_P1;PMS_P2;Temp;Humidity;BMP_temperature;BMP_pressure;BME280_temperature;BME280_humidity;BME280_pressure;Samples;Min_cycle;Max_cycle;Signal;HPM_P1;HPM_P2
2021/10/30 00:01:39;;;;;;;83.15;18.02;;;;;;;6.07;100.00;96018.00;5000853;28;20077;-57
2021/10/30 00:04:08;;;;;;;124.05;19.75;;;;;;;6.66;100.00;96022.56;5003189;28;20488;-59
2021/10/30 00:06:36;;;;;;;63.20;19.75;;;;;;;6.69;100.00;96014.47;5000054;28;20074;-56
2021/10/30 00:09:06;;;;;;;63.38;18.27;;;;;;;7.09;100.00;96014.47;5012025;28;20090;-60
2021/10/30 00:11:34;;;;;;;84.78;22.52;;;;;;;6.93;100.00;96008.91;5009700;28;20089;-60
2021/10/30 00:14:03;;;;;;;93.40;20.63;;;;;;;6.80;100.00;96009.13;5003079;28;20080;-58
2021/10/30 00:16:31;;;;;;;78.40;21.65;;;;;;;6.92;100.00;96007.25;5005462;28;20085;-56
2021/10/30 00:19:00;;;;;;;71.97;19.48;;;;;;;6.23;100.00;96005.28;5001504;28;20077;-56
2021/10/30 00:21:28;;;;;;;111.80;23.65;;;;;;;6.51;100.00;96013.41;5009381;28;20085;-56
2021/10/30 00:23:57;;;;;;;94.68;21.90;;;;;;;6.53;100.00;96009.69;5012059;28;20112;-57
2021/10/30 00:26:27;;;;;;;99.95;20.23;;;;;;;6.08;100.00;95998.69;5008170;28;20081;-59
2021/10/30 00:28:55;;;;;;;78.03;18.88;;;;;;;6.61;100.00;96004.66;4986931;28;20189;-55
2021/10/30 00:31:24;;;;;;;107.47;19.92;;;;;;;6.06;100.00;95993.59;4999110;28;20065;-59
2021/10/30 00:33:52;;;;;;;98.53;18.67;;;;;;;5.92;100.00;96002.59;5005940;28;20481;-59
2021/10/30 00:36:21;;;;;;;70.03;17.63;;;;;;;6.55;100.00;95989.44;4985139;28;20517;-58
2021/10/30 00:38:49;;;;;;;113.53;19.77;;;;;;;6.69;100.00;95983.03;5009226;28;20078;-60
2021/10/30 00:41:19;;;;;;;124.38;20.15;;;;;;;6.85;100.00;95980.75;5005500;28;20531;-58
2021/10/30 00:43:50;;;;;;;79.82;18.77;;;;;;;7.04;100.00;95979.13;4991008;28;20078;-59
2021/10/30 00:46:18;;;;;;;117.03;19.42;;;;;;;6.76;100.00;95992.00;4983399;28;20178;-60
2021/10/30 00:48:47;;;;;;;62.67;17.63;;;;;;;7.12;100.00;95992.38;4983348;28;20084;-58
2021/10/30 00:51:15;;;;;;;58.92;18.77;;;;;;;6.93;100.00;96000.22;4985774;28;20182;-57
2021/10/30 00:53:44;;;;;;;87.82;21.50;;;;;;;6.58;100.00;96007.53;5001443;28;20076;-59
2021/10/30 00:56:13;;;;;;;70.32;18.52;;;;;;;6.41;100.00;96001.09;5002723;28;20069;-58
2021/10/30 00:58:42;;;;;;;51.20;18.42;;;;;;;6.75;100.00;95997.41;5002301;28;20070;-57
2021/10/30 01:01:12;;;;;;;88.13;18.58;;;;;;;6.82;100.00;95999.34;5002540;28;20062;-57
2021/10/30 01:04:00;;;;;;;65.53;19.35;;;;;;;6.72;100.00;95997.66;5005096;28;20075;-56
2021/10/30 01:06:28;;;;;;;114.03;19.65;;;;;;;7.34;100.00;95994.78;5005647;28;20109;-58
2021/10/30 01:08:57;;;;;;;71.38;18.08;;;;;;;6.89;100.00;96000.47;5001348;28;20100;-58
2021/10/30 01:11:26;;;;;;;64.07;18.17;;;;;;;7.08;100.00;96004.91;5023805;28;20060;-58
2021/10/30 01:13:55;;;;;;;56.20;18.40;;;;;;;7.44;100.00;95986.09;5020095;28;20073;-59
2021/10/30 01:16:25;;;;;;;49.83;17.70;;;;;;;7.54;100.00;95979.06;5001797;28;20077;-59
2021/10/30 01:18:54;;;;;;;105.15;18.65;;;;;;;6.98;100.00;95971.78;4999509;28;20066;-58
2021/10/30 01:21:28;;;;;;;82.68;17.13;;;;;;;6.71;100.00;95972.41;5016133;28;20081;-59
2021/10/30 01:23:57;;;;;;;42.97;17.27;;;;;;;6.89;100.00;95976.06;5009332;28;20452;-59
2021/10/30 01:26:26;;;;;;;81.43;17.27;;;;;;;5.82;100.00;95980.75;5023195;28;20064;-58
2021/10/30 01:28:54;;;;;;;67.18;15.93;;;;;;;5.92;100.00;95972.97;5008251;28;20454;-57
2021/10/30 01:31:24;;;;;;;83.28;15.23;;;;;;;6.17;100.00;95977.81;5007595;28;20199;-59
2021/10/30 01:33:53;;;;;;;93.90;15.70;;;;;;;6.53;100.00;95956.47;4999237;28;20109;-60
2021/10/30 01:36:22;;;;;;;64.63;15.27;;;;;;;6.27;100.00;95956.94;4989413;28;20070;-58
2021/10/30 01:38:52;;;;;;;56.90;14.93;;;;;;;5.85;100.00;95963.94;5007779;28;20066;-58
2021/10/30 01:41:25;;;;;;;65.50;15.35;;;;;;;5.80;100.00;95963.50;4993706;28;20500;-58
2021/10/30 01:43:55;;;;;;;48.35;13.60;;;;;;;5.35;100.00;95966.31;5022976;28;20088;-58
2021/10/30 01:46:26;;;;;;;49.53;14.23;;;;;;;5.08;100.00;95964.16;5005463;28;20069;-58
2021/10/30 01:48:54;;;;;;;94.72;14.48;;;;;;;5.57;100.00;95961.00;5008594;28;20061;-59
2021/10/30 01:51:23;;;;;;;65.97;13.93;;;;;;;5.24;100.00;95967.19;5000309;28;20080;-61
2021/10/30 01:53:53;;;;;;;66.22;14.35;;;;;;;5.24;100.00;95970.63;5005257;28;20058;-59
2021/10/30 01:56:22;;;;;;;111.82;15.57;;;;;;;5.71;100.00;95967.69;4997065;28;20096;-58
2021/10/30 01:58:51;;;;;;;54.05;13.45;;;;;;;5.93;100.00;95964.19;5003734;28;20072;-60
2021/10/30 02:01:19;;;;;;;111.07;14.45;;;;;;;5.78;100.00;95955.78;4991383;28;20084;-60
2021/10/30 02:03:48;;;;;;;112.00;15.18;;;;;;;6.25;100.00;95958.00;5000302;28;20160;-57
2021/10/30 02:06:16;;;;;;;69.43;13.15;;;;;;;6.10;100.00;95950.50;5003418;28;20041;-59
2021/10/30 02:08:45;;;;;;;68.53;12.65;;;;;;;5.62;100.00;95953.59;4995108;28;20057;-57
2021/10/30 02:11:15;;;;;;;54.97;13.15;;;;;;;5.78;100.00;95950.56;5003987;28;20195;-58
2021/10/30 02:13:43;;;;;;;70.03;13.45;;;;;;;5.61;100.00;95948.47;5004622;28;20516;-58
2021/10/30 02:16:13;;;;;;;36.40;12.30;;;;;;;5.42;100.00;95942.16;5010219;28;20089;-59
2021/10/30 02:18:42;;;;;;;77.68;13.98;;;;;;;5.57;100.00;95934.84;5009425;28;20081;-58
2021/10/30 02:21:10;;;;;;;62.40;13.00;;;;;;;5.83;100.00;95921.38;5007660;28;20089;-56
2021/10/30 02:23:39;;;;;;;34.60;12.70;;;;;;;5.65;100.00;95924.59;4990669;28;20046;-58
2021/10/30 02:26:07;;;;;;;94.22;14.43;;;;;;;5.82;100.00;95928.41;4998429;28;20054;-59
2021/10/30 02:28:37;;;;;;;38.30;12.88;;;;;;;5.81;100.00;95931.13;5005117;28;20061;-58
2021/10/30 02:31:06;;;;;;;62.15;13.55;;;;;;;5.67;100.00;95938.34;5007384;28;20065;-59
2021/10/30 02:33:34;;;;;;;51.92;13.18;;;;;;;6.00;100.00;95935.72;4990195;28;20438;-56
2021/10/30 02:36:03;;;;;;;43.67;13.15;;;;;;;6.32;100.00;95925.94;4997236;28;20564;-58
2021/10/30 02:38:32;;;;;;;68.30;15.75;;;;;;;6.13;100.00;95928.47;5010789;28;20070;-57
2021/10/30 02:41:00;;;;;;;86.13;14.10;;;;;;;6.22;100.00;95917.19;4998325;28;20065;-58
2021/10/30 02:43:29;;;;;;;100.07;14.23;;;;;;;6.14;100.00;95907.41;4995817;28;20143;-57
2021/10/30 02:45:59;;;;;;;77.50;13.55;;;;;;;6.32;100.00;95902.38;5003168;28;20065;-58
2021/10/30 02:48:27;;;;;;;68.50;13.80;;;;;;;6.62;100.00;95903.31;4996514;28;20439;-55
2021/10/30 02:50:56;;;;;;;61.05;13.07;;;;;;;6.04;100.00;95914.38;4999789;28;20120;-59
2021/10/30 02:53:25;;;;;;;41.35;11.98;;;;;;;6.60;100.00;95923.56;5004704;28;20065;-55
2021/10/30 02:55:53;;;;;;;37.80;11.60;;;;;;;6.56;100.00;95925.59;5004883;28;20115;-59
2021/10/30 02:58:22;;;;;;;53.35;11.73;;;;;;;6.50;100.00;95914.81;4999423;28;20054;-55
2021/10/30 03:00:50;;;;;;;43.10;12.45;;;;;;;6.74;100.00;95901.38;4987797;28;20081;-60
2021/10/30 03:03:20;;;;;;;40.42;12.60;;;;;;;6.64;100.00;95904.84;4986623;28;20089;-54
2021/10/30 03:05:49;;;;;;;29.17;11.75;;;;;;;6.61;100.00;95901.66;4981029;28;20085;-58
2021/10/30 03:08:17;;;;;;;34.63;12.63;;;;;;;6.42;100.00;95905.03;4985719;28;20090;-57
2021/10/30 03:10:46;;;;;;;57.13;13.05;;;;;;;5.96;100.00;95895.06;4997725;28;20072;-59
2021/10/30 03:13:14;;;;;;;131.20;14.93;;;;;;;6.15;100.00;95903.81;5015928;28;20069;-58
2021/10/30 03:15:43;;;;;;;71.57;13.45;;;;;;;6.14;100.00;95903.94;4994313;28;20089;-60
2021/10/30 03:18:11;;;;;;;51.80;12.82;;;;;;;6.57;100.00;95893.22;5008827;28;20081;-60
2021/10/30 03:20:41;;;;;;;34.65;13.23;;;;;;;6.27;100.00;95906.34;4999719;28;20093;-58
2021/10/30 03:23:09;;;;;;;55.63;13.73;;;;;;;5.96;100.00;95911.59;5005034;28;20069;-58
2021/10/30 03:25:38;;;;;;;48.45;12.73;;;;;;;6.60;100.00;95906.03;5000796;28;20062;-56
2021/10/30 03:28:07;;;;;;;66.82;13.75;;;;;;;5.45;100.00;95907.91;4999471;28;20475;-56
2021/10/30 03:30:36;;;;;;;78.35;14.43;;;;;;;6.00;100.00;95905.13;4994555;28;20086;-57
2021/10/30 03:33:04;;;;;;;54.58;14.93;;;;;;;5.54;100.00;95905.50;5001711;28;20552;-59
2021/10/30 03:35:33;;;;;;;42.03;13.93;;;;;;;5.17;100.00;95900.69;4994617;28;20065;-57
2021/10/30 03:38:03;;;;;;;37.17;12.88;;;;;;;5.39;100.00;95895.34;5004202;28;20077;-57
2021/10/30 03:40:31;;;;;;;50.78;13.70;;;;;;;5.65;100.00;95884.53;4993345;28;20547;-56
2021/10/30 03:43:00;;;;;;;29.40;12.75;;;;;;;5.63;100.00;95882.03;5006125;28;20065;-59
2021/10/30 03:45:28;;;;;;;42.50;13.27;;;;;;;5.57;100.00;95881.69;4993220;28;20097;-59
2021/10/30 03:47:57;;;;;;;57.60;13.40;;;;;;;5.46;100.00;95878.19;4999840;28;20307;-58
2021/10/30 03:50:26;;;;;;;56.78;13.18;;;;;;;6.06;100.00;95867.16;5006748;28;20092;-59
2021/10/30 03:52:54;;;;;;;58.78;14.15;;;;;;;5.03;100.00;95872.25;4998181;28;20077;-60
2021/10/30 03:55:24;;;;;;;64.47;14.40;;;;;;;4.87;100.00;95865.63;5006527;28;20453;-59
2021/10/30 03:57:53;;;;;;;46.75;14.05;;;;;;;4.84;100.00;95858.06;4999988;28;20077;-57
2021/10/30 04:00:21;;;;;;;74.13;13.82;;;;;;;4.79;100.00;95855.00;5009426;28;20086;-56
2021/10/30 04:02:50;;;;;;;41.42;13.70;;;;;;;5.17;100.00;95851.88;4999239;28;20185;-58
2021/10/30 04:05:19;;;;;;;59.65;14.23;;;;;;;5.26;100.00;95842.41;5006169;28;20176;-58
2021/10/30 04:07:47;;;;;;;46.42;14.00;;;;;;;5.30;100.00;95840.38;4999632;28;20465;-52
2021/10/30 04:10:16;;;;;;;42.10;13.55;;;;;;;5.16;100.00;95851.97;5003406;28;20157;-59
2021/10/30 04:12:46;;;;;;;54.50;14.10;;;;;;;5.42;100.00;95855.88;4997507;28;20085;-59
2021/10/30 04:15:14;;;;;;;40.92;13.70;;;;;;;4.82;100.00;95857.38;5005569;28;20089;-60
2021/10/30 04:17:42;;;;;;;96.30;15.40;;;;;;;4.73;100.00;95855.47;5006463;28;20542;-58
2021/10/30 04:20:11;;;;;;;96.03;14.35;;;;;;;4.79;100.00;95855.00;5008080;28;20073;-58
2021/10/30 04:22:40;;;;;;;57.22;13.98;;;;;;;5.00;100.00;95852.41;5002544;28;20062;-57
2021/10/30 04:25:09;;;;;;;90.15;16.98;;;;;;;5.20;100.00;95846.38;4990529;28;20073;-58
2021/10/30 04:27:37;;;;;;;67.13;13.68;;;;;;;4.21;100.00;95857.84;5002730;28;20073;-57
2021/10/30 04:30:08;;;;;;;54.40;13.50;;;;;;;4.29;100.00;95859.84;5012183;28;20094;-57
2021/10/30 04:32:37;;;;;;;85.90;14.27;;;;;;;4.59;100.00;95840.94;5005234;28;20066;-57
2021/10/30 04:35:08;;;;;;;54.40;14.15;;;;;;;4.40;100.00;95848.56;5007449;28;20080;-58
2021/10/30 04:37:37;;;;;;;60.70;14.50;;;;;;;5.40;100.00;95846.50;5009005;28;20401;-57
2021/10/30 04:40:07;;;;;;;115.70;17.60;;;;;;;5.30;100.00;95849.06;5003021;28;20120;-61
2021/10/30 04:42:35;;;;;;;127.20;17.60;;;;;;;5.59;100.00;95844.00;5003730;28;20088;-53
2021/10/30 04:45:05;;;;;;;132.70;16.92;;;;;;;5.49;100.00;95845.75;5012844;28;20096;-60
2021/10/30 04:47:34;;;;;;;112.75;15.60;;;;;;;5.55;100.00;95841.78;4992369;28;20101;-59
2021/10/30 04:50:03;;;;;;;69.35;15.80;;;;;;;5.28;100.00;95832.69;4993367;28;20089;-57
2021/10/30 04:52:32;;;;;;;70.05;15.93;;;;;;;5.37;100.00;95824.06;5002513;28;20065;-61
2021/10/30 04:55:01;;;;;;;56.95;15.63;;;;;;;5.52;100.00;95826.34;4991575;28;20058;-59
2021/10/30 04:57:29;;;;;;;73.28;16.25;;;;;;;5.45;100.00;95820.81;4985992;28;20038;-58
2021/10/30 04:59:58;;;;;;;92.40;16.52;;;;;;;5.17;100.00;95809.22;5009792;28;20468;-58
2021/10/30 05:02:26;;;;;;;107.82;16.35;;;;;;;5.08;100.00;95800.34;4993094;28;20065;-60
2021/10/30 05:04:56;;;;;;;91.10;15.40;;;;;;;4.91;100.00;95799.13;5004693;28;20066;-57
2021/10/30 05:07:25;;;;;;;84.88;16.67;;;;;;;4.48;100.00;95805.25;5005929;28;20528;-56
2021/10/30 05:09:53;;;;;;;80.03;17.05;;;;;;;4.60;100.00;95795.56;4996436;28;20078;-57
2021/10/30 05:12:22;;;;;;;85.30;16.00;;;;;;;4.86;100.00;95793.47;4992518;28;20090;-59
2021/10/30 05:14:50;;;;;;;83.78;16.15;;;;;;;4.61;100.00;95786.81;5004009;28;20100;-60
2021/10/30 05:17:19;;;;;;;82.03;14.88;;;;;;;4.91;100.00;95799.13;5007913;28;20074;-60
2021/10/30 05:19:47;;;;;;;111.18;16.48;;;;;;;5.20;100.00;95790.69;5009088;28;20069;-60
2021/10/30 05:22:17;;;;;;;51.55;16.15;;;;;;;4.83;100.00;95785.88;5008343;28;20072;-60
2021/10/30 05:24:46;;;;;;;73.82;17.05;;;;;;;5.04;100.00;95775.44;4996165;28;20509;-57
2021/10/30 05:27:15;;;;;;;40.88;14.15;;;;;;;4.30;100.00;95796.25;4983882;28;20081;-60
2021/10/30 05:29:44;;;;;;;51.20;16.08;;;;;;;4.42;100.00;95779.63;4982809;28;20217;-57
2021/10/30 05:32:12;;;;;;;67.30;14.68;;;;;;;4.26;100.00;95768.75;4989016;28;20525;-60
2021/10/30 05:34:40;;;;;;;42.95;14.93;;;;;;;4.19;100.00;95763.19;4992103;28;20161;-56
2021/10/30 05:37:09;;;;;;;55.25;15.30;;;;;;;4.16;100.00;95765.22;5008420;28;20081;-57
2021/10/30 05:39:40;;;;;;;74.97;15.75;;;;;;;4.23;100.00;95764.63;5000094;28;20078;-56
2021/10/30 05:42:10;;;;;;;65.88;15.45;;;;;;;5.17;100.00;95768.22;4991643;28;20109;-60
2021/10/30 05:44:39;;;;;;;37.78;15.35;;;;;;;5.66;100.00;95756.22;5000779;28;20069;-59
2021/10/30 05:47:08;;;;;;;57.60;16.23;;;;;;;5.44;100.00;95761.66;5007764;28;20551;-58
2021/10/30 05:49:39;;;;;;;43.35;15.63;;;;;;;5.13;100.00;95771.25;5008504;28;20080;-58
2021/10/30 05:52:08;;;;;;;50.03;15.50;;;;;;;5.11;100.00;95765.31;5001898;28;20057;-58
2021/10/30 05:54:39;;;;;;;91.28;15.77;;;;;;;5.44;100.00;95757.25;5004654;28;20112;-55
2021/10/30 05:57:10;;;;;;;55.25;14.05;;;;;;;5.54;100.00;95752.06;4994737;28;20089;-59
2021/10/30 05:59:38;;;;;;;65.50;14.27;;;;;;;5.64;100.00;95754.69;5007810;28;20066;-58
2021/10/30 06:02:11;;;;;;;66.78;14.55;;;;;;;4.98;100.00;95755.84;5020023;28;20444;-57
2021/10/30 06:04:40;;;;;;;72.50;15.20;;;;;;;5.30;100.00;95749.75;5006892;28;20465;-60
2021/10/30 06:07:09;;;;;;;54.50;14.48;;;;;;;5.57;100.00;95751.75;4994605;28;20069;-56
2021/10/30 06:09:39;;;;;;;79.90;15.85;;;;;;;5.08;100.00;95763.75;5005426;28;20073;-58
2021/10/30 06:12:08;;;;;;;57.67;14.80;;;;;;;4.73;100.00;95740.56;5007805;28;20077;-58
2021/10/30 06:14:37;;;;;;;48.72;15.05;;;;;;;4.33;100.00;95740.38;5004153;28;20073;-56
2021/10/30 06:17:07;;;;;;;38.13;13.18;;;;;;;4.11;100.00;95741.28;4994713;28;20077;-58
2021/10/30 06:19:35;;;;;;;35.50;14.10;;;;;;;4.56;100.00;95734.13;5007180;28;20077;-57
2021/10/30 06:22:04;;;;;;;48.42;13.80;;;;;;;4.61;100.00;95726.75;5003326;28;20521;-57
2021/10/30 06:24:32;;;;;;;65.53;13.73;;;;;;;5.03;100.00;95733.78;4975054;28;20097;-58
2021/10/30 06:27:02;;;;;;;46.15;13.27;;;;;;;4.88;100.00;95738.47;5003865;28;20114;-59
2021/10/30 06:29:31;;;;;;;61.72;13.90;;;;;;;4.69;100.00;95731.34;4995886;28;20066;-59
2021/10/30 06:32:00;;;;;;;52.50;13.85;;;;;;;4.35;100.00;95723.66;5006367;28;20092;-58
2021/10/30 06:34:29;;;;;;;77.35;14.43;;;;;;;4.39;100.00;95712.00;5000840;28;20073;-55
2021/10/30 06:36:57;;;;;;;66.57;13.85;;;;;;;4.73;100.00;95704.00;4994250;28;20073;-61
2021/10/30 06:39:25;;;;;;;53.53;13.57;;;;;;;4.81;100.00;95709.41;5009579;28;20485;-59
2021/10/30 06:41:54;;;;;;;47.35;13.30;;;;;;;4.25;100.00;95715.72;5006392;28;20077;-59
2021/10/30 06:44:29;;;;;;;57.53;13.95;;;;;;;3.87;100.00;95708.38;5008192;28;20066;-58
2021/10/30 06:46:57;;;;;;;38.78;11.45;;;;;;;3.77;100.00;95717.88;5007631;28;20503;-58
2021/10/30 06:49:26;;;;;;;48.05;11.95;;;;;;;3.88;100.00;95706.59;5011210;28;20081;-60
2021/10/30 06:51:55;;;;;;;33.25;11.57;;;;;;;4.21;100.00;95709.09;5007487;28;20065;-58
2021/10/30 06:54:24;;;;;;;35.50;12.63;;;;;;;4.46;100.00;95702.72;5002137;28;20089;-56
2021/10/30 06:56:53;;;;;;;44.90;11.77;;;;;;;3.96;100.00;95705.03;5002474;28;20100;-57
2021/10/30 06:59:22;;;;;;;45.40;12.68;;;;;;;4.08;100.00;95702.41;4990237;28;20075;-56
2021/10/30 07:01:52;;;;;;;42.45;13.02;;;;;;;4.03;100.00;95706.22;4982266;28;20101;-57
2021/10/30 07:04:20;;;;;;;51.70;11.65;;;;;;;4.02;100.00;95707.13;5006724;28;20062;-59
2021/10/30 07:06:49;;;;;;;41.55;11.40;;;;;;;4.13;100.00;95710.66;5007110;28;20097;-60
2021/10/30 07:09:17;;;;;;;55.35;12.32;;;;;;;4.28;100.00;95704.22;5007938;28;20136;-57
2021/10/30 07:11:46;;;;;;;47.78;11.77;;;;;;;4.07;100.00;95709.41;5000559;28;20081;-58
2021/10/30 07:14:15;;;;;;;51.92;11.25;;;;;;;3.97;100.00;95708.47;5002591;28;20100;-60
2021/10/30 07:16:43;;;;;;;48.00;11.07;;;;;;;4.44;100.00;95698.56;4980746;28;20074;-57
2021/10/30 07:19:13;;;;;;;30.15;11.38;;;;;;;4.39;100.00;95703.34;4995327;28;20068;-57
2021/10/30 07:21:42;;;;;;;38.42;12.43;;;;;;;4.88;100.00;95692.28;5006914;28;20542;-59
2021/10/30 07:24:10;;;;;;;42.50;11.52;;;;;;;4.47;100.00;95701.78;4992943;28;20081;-53
2021/10/30 07:26:38;;;;;;;34.60;11.43;;;;;;;4.49;100.00;95699.03;5004601;28;20074;-57
2021/10/30 07:29:07;;;;;;;27.30;11.50;;;;;;;4.84;100.00;95690.06;5000051;28;20073;-55
2021/10/30 07:31:35;;;;;;;47.63;12.20;;;;;;;5.08;100.00;95695.81;4997969;28;20073;-57
2021/10/30 07:34:04;;;;;;;44.58;12.35;;;;;;;5.27;100.00;95687.25;4985583;28;20073;-56
2021/10/30 07:36:34;;;;;;;58.33;13.95;;;;;;;5.40;100.00;95687.03;5005922;28;20081;-58
2021/10/30 07:39:02;;;;;;;30.65;11.52;;;;;;;4.50;100.00;95696.28;4988741;28;20078;-60
2021/10/30 07:41:31;;;;;;;31.35;11.65;;;;;;;5.06;100.00;95683.84;5003057;28;20045;-59
2021/10/30 07:43:59;;;;;;;19.67;11.75;;;;;;;5.77;100.00;95697.75;5004226;28;20081;-58
2021/10/30 07:46:28;;;;;;;38.33;13.35;;;;;;;5.25;100.00;95691.78;5010140;28;20720;-58
2021/10/30 07:48:56;;;;;;;33.45;12.20;;;;;;;5.06;100.00;95705.59;5006595;28;20069;-58
2021/10/30 07:51:25;;;;;;;22.23;12.60;;;;;;;5.48;100.00;95698.50;5010595;28;20508;-59
2021/10/30 07:53:55;;;;;;;24.40;11.60;;;;;;;5.21;100.00;95703.47;4981764;28;20313;-59
2021/10/30 07:56:23;;;;;;;28.42;13.48;;;;;;;5.60;100.00;95701.00;4989312;28;20563;-61
2021/10/30 07:58:52;;;;;;;37.53;12.18;;;;;;;5.77;100.00;95696.91;4995457;28;20061;-59
2021/10/30 08:01:21;;;;;;;28.75;11.80;;;;;;;5.40;100.00;95687.88;4998835;28;20064;-58
2021/10/30 08:03:49;;;;;;;25.83;12.48;;;;;;;5.48;100.00;95688.03;5009500;28;20077;-56
2021/10/30 08:06:18;;;;;;;49.42;12.65;;;;;;;5.20;100.00;95693.97;5008281;28;20110;-59
2021/10/30 08:08:47;;;;;;;41.60;11.85;;;;;;;5.24;100.00;95677.06;5005277;28;20077;-59
2021/10/30 08:11:16;;;;;;;15.52;12.07;;;;;;;5.22;100.00;95673.75;5010295;28;20081;-58
2021/10/30 08:13:45;;;;;;;17.15;12.90;;;;;;;5.76;100.00;95661.25;5002684;28;20085;-58
2021/10/30 08:16:13;;;;;;;17.40;13.75;;;;;;;5.99;100.00;95659.25;5002309;28;20069;-57
2021/10/30 08:18:42;;;;;;;14.35;11.73;;;;;;;5.59;100.00;95654.88;4995352;28;20472;-59
2021/10/30 08:21:10;;;;;;;17.23;12.90;;;;;;;5.65;100.00;95659.59;5011680;28;20077;-60
2021/10/30 08:23:39;;;;;;;20.40;13.25;;;;;;;5.73;100.00;95644.03;4997527;28;20065;-59
2021/10/30 08:26:08;;;;;;;17.88;12.75;;;;;;;6.40;100.00;95648.53;5003877;28;20069;-58
2021/10/30 08:28:37;;;;;;;24.48;13.18;;;;;;;6.89;100.00;95638.78;5009622;28;20080;-58
2021/10/30 08:31:07;;;;;;;35.08;13.68;;;;;;;6.48;100.00;95639.97;5008882;28;20066;-58
2021/10/30 08:33:36;;;;;;;16.42;12.90;;;;;;;5.97;100.00;95637.63;5000569;28;20084;-60
2021/10/30 08:36:05;;;;;;;26.55;14.63;;;;;;;6.11;100.00;95629.38;4999087;28;20092;-61
2021/10/30 08:38:34;;;;;;;18.40;12.68;;;;;;;5.89;100.00;95626.03;4996618;28;20084;-61
2021/10/30 08:41:03;;;;;;;16.67;12.27;;;;;;;5.87;100.00;95616.66;5005130;28;20175;-60
2021/10/30 08:43:32;;;;;;;19.08;12.88;;;;;;;6.10;100.00;95610.25;5009559;28;20076;-55
2021/10/30 08:46:02;;;;;;;20.10;14.07;;;;;;;6.20;100.00;95604.19;5002998;28;20073;-61
2021/10/30 08:48:31;;;;;;;18.63;13.82;;;;;;;6.30;100.00;95605.81;5014600;28;20070;-59
2021/10/30 08:51:01;;;;;;;18.08;13.82;;;;;;;6.97;100.00;95593.53;5011276;28;20085;-61
2021/10/30 08:53:30;;;;;;;17.33;13.55;;;;;;;6.45;100.00;95592.28;4996239;28;20069;-60
2021/10/30 08:56:03;;;;;;;22.40;15.75;;;;;;;7.12;100.00;95575.50;5007898;28;20077;-58
2021/10/30 08:58:32;;;;;;;19.05;14.80;;;;;;;7.07;100.00;95573.34;5007417;28;20076;-58
2021/10/30 09:01:04;;;;;;;18.27;13.73;;;;;;;6.77;100.00;95570.97;5005011;28;20062;-59
2021/10/30 09:03:33;;;;;;;19.55;14.40;;;;;;;6.80;100.00;95562.81;5007145;28;20066;-58
2021/10/30 09:06:02;;;;;;;19.13;14.38;;;;;;;7.36;100.00;95554.00;5006815;28;20078;-59
2021/10/30 09:08:33;;;;;;;19.48;13.60;;;;;;;7.07;100.00;95555.00;5001212;28;20066;-61
2021/10/30 09:11:08;;;;;;;18.08;13.68;;;;;;;7.58;100.00;95548.34;5001431;28;20065;-59
2021/10/30 09:13:37;;;;;;;17.42;13.63;;;;;;;7.47;100.00;95545.13;5000835;28;20124;-58
2021/10/30 09:16:09;;;;;;;17.38;13.57;;;;;;;7.57;100.00;95540.63;5001852;28;20072;-60
2021/10/30 09:18:38;;;;;;;19.00;14.52;;;;;;;8.45;100.00;95544.19;4996570;28;20081;-58
2021/10/30 09:21:14;;;;;;;19.83;15.68;;;;;;;9.28;100.00;95547.06;5002634;28;20469;-58
2021/10/30 09:23:45;;;;;;;19.98;14.57;;;;;;;9.47;100.00;95553.91;5004024;28;20821;-58
2021/10/30 09:26:19;;;;;;;20.20;14.73;;;;;;;9.56;100.00;95565.25;5002002;28;20076;-59
2021/10/30 09:28:52;;;;;;;19.80;14.90;;;;;;;9.42;100.00;95573.75;5005810;28;20093;-58
2021/10/30 09:31:22;;;;;;;18.23;13.60;;;;;;;9.26;100.00;95562.22;5008347;28;20057;-57
2021/10/30 09:33:51;;;;;;;;;;;;;;;9.51;100.00;95557.03;5005497;28;20069;-58
2021/10/30 09:36:21;;;;;;;20.13;14.27;;;;;;;9.47;100.00;95558.34;5011024;28;19965;-60
2021/10/30 09:38:55;;;;;;;18.05;14.73;;;;;;;9.95;100.00;95551.53;5004469;28;20077;-58
2021/10/30 09:41:25;;;;;;;19.88;14.88;;;;;;;9.59;100.00;95557.03;5007959;28;20081;-59
2021/10/30 09:43:57;;;;;;;20.27;14.27;;;;;;;9.67;100.00;95557.06;5001965;28;20061;-59
2021/10/30 09:46:27;;;;;;;22.33;16.45;;;;;;;9.99;100.00;95539.69;5016198;28;20087;-60
2021/10/30 09:48:57;;;;;;;20.95;15.65;;;;;;;9.62;100.00;95545.38;5007698;28;20176;-60
2021/10/30 09:51:33;;;;;;;20.33;15.48;;;;;;;9.93;100.00;95535.88;5011077;28;20074;-59
2021/10/30 09:54:04;;;;;;;21.90;16.88;;;;;;;10.04;100.00;95536.53;5002255;28;20077;-56
2021/10/30 09:56:41;;;;;;;23.70;17.42;;;;;;;9.47;100.00;95535.47;4998167;28;20069;-58
2021/10/30 09:59:10;;;;;;;21.23;15.95;;;;;;;10.22;100.00;95527.50;5008312;28;20092;-60
2021/10/30 10:01:40;;;;;;;20.60;15.45;;;;;;;9.47;100.00;95534.66;4998788;28;20089;-61
2021/10/30 10:04:10;;;;;;;;;;;;;;;10.04;100.00;95540.00;5004684;28;20523;-58
2021/10/30 10:06:39;;;;;;;23.35;16.08;;;;;;;10.46;100.00;95536.41;5003604;28;19979;-61
2021/10/30 10:09:09;;;;;;;22.10;17.03;;;;;;;10.89;100.00;95527.25;5010809;28;20181;-60
2021/10/30 10:11:41;;;;;;;23.58;17.58;;;;;;;10.04;100.00;95524.19;5022063;28;20073;-59
2021/10/30 10:14:12;;;;;;;23.98;17.70;;;;;;;10.57;100.00;95514.97;5003240;28;20069;-59
2021/10/30 10:16:43;;;;;;;26.15;18.83;;;;;;;10.38;100.00;95518.78;5008079;28;20065;-61
2021/10/30 10:19:11;;;;;;;24.42;18.50;;;;;;;10.61;100.00;95532.09;5007699;28;20062;-58
2021/10/30 10:21:40;;;;;;;28.42;20.70;;;;;;;10.53;100.00;95521.56;4994260;28;20081;-60
2021/10/30 10:24:13;;;;;;;28.38;20.17;;;;;;;10.25;100.00;95514.97;4977675;28;20090;-61
2021/10/30 10:26:49;;;;;;;26.90;18.25;;;;;;;10.22;100.00;95501.16;4987695;28;20073;-57
2021/10/30 10:29:29;;;;;;;29.08;19.90;;;;;;;10.56;100.00;95492.22;5002041;28;20471;-59
2021/10/30 10:32:01;;;;;;;29.23;21.00;;;;;;;11.65;100.00;95486.13;4982979;28;20157;-58
2021/10/30 10:34:31;;;;;;;24.85;18.73;;;;;;;11.33;100.00;95486.34;4979670;28;20515;-60
2021/10/30 10:37:22;;;;;;;23.98;18.48;;;;;;;11.55;100.00;95484.72;5001248;28;20037;-61
2021/10/30 10:39:53;;;;;;;24.88;18.33;;;;;;;11.72;100.00;95485.44;5001454;28;20064;-60
2021/10/30 10:42:41;;;;;;;25.42;19.10;;;;;;;11.78;100.00;95476.81;5009454;28;20551;-61
2021/10/30 10:45:10;;;;;;;22.92;17.25;;;;;;;11.69;100.00;95477.88;4999077;28;20046;-59
2021/10/30 10:47:59;;;;;;;23.73;17.27;;;;;;;11.28;100.00;95464.91;5004433;28;20086;-59
2021/10/30 10:50:44;;;;;;;23.70;17.52;;;;;;;12.08;100.00;95454.00;5007001;28;20203;-56
2021/10/30 10:53:18;;;;;;;22.13;16.65;;;;;;;12.29;100.00;95454.13;5000243;28;20397;-58
2021/10/30 10:56:14;;;;;;;26.00;19.25;;;;;;;12.39;100.00;95448.59;5004044;28;20073;-57
2021/10/30 10:59:16;;;;;;;;;;;;;;;12.64;100.00;95441.22;5007770;28;20475;-61
2021/10/30 11:02:20;;;;;;;21.65;15.75;;;;;;;12.85;100.00;95445.78;5000039;28;20052;-60
2021/10/30 11:05:27;;;;;;;22.00;15.27;;;;;;;12.86;100.00;95438.66;5006473;28;20077;-60
2021/10/30 11:08:29;;;;;;;22.35;17.15;;;;;;;12.96;100.00;95450.59;4992029;28;20076;-61
2021/10/30 11:11:18;;;;;;;21.48;15.85;;;;;;;12.81;100.00;95440.03;5006870;28;20073;-60
2021/10/30 11:13:52;;;;;;;23.65;16.65;;;;;;;13.11;100.00;95424.13;5000707;28;20072;-61
2021/10/30 11:16:28;;;;;;;22.13;15.90;;;;;;;12.92;100.00;95412.28;4996147;28;20070;-58
2021/10/30 11:19:08;;;;;;;21.02;15.55;;;;;;;13.31;100.00;95419.06;5004536;28;20058;-56
2021/10/30 11:21:43;;;;;;;20.92;16.48;;;;;;;13.41;100.00;95414.28;4996320;28;20165;-56
2021/10/30 11:24:17;;;;;;;20.83;16.42;;;;;;;12.97;100.00;95409.91;5003435;28;20066;-59
2021/10/30 11:26:54;;;;;;;21.13;15.50;;;;;;;13.19;100.00;95410.75;5010145;28;20076;-61
2021/10/30 11:29:23;;;;;;;23.00;18.13;;;;;;;13.44;100.00;95413.09;5007034;28;20082;-57
2021/10/30 11:31:55;;;;;;;20.63;16.58;;;;;;;13.60;100.00;95406.75;5010445;28;20457;-58